Time;durP1;ratioP1;P1;durP2;ratioP2;P2;SDS_P1;SDS_P2;PMS_P1;PMS_P2;Temp;Humidity;BMP_temperature;BMP_pressure;BME280_temperature;BME280_humidity;BME280_pressure;Samples;Min_cycle;Max_cycle;Signal;HPM_P1;HPM_P2
2022/01/28 00:01:55;;;;;;;;;;;-1.80;98.50;;;;;;5019147;28;19909;-78
2022/01/28 00:04:20;;;;;;;;;;;-1.80;98.70;;;;;;5019082;28;19963;-78
2022/01/28 00:06:46;;;;;;;;;;;-1.80;98.50;;;;;;5019257;28;19913;-78
2022/01/28 00:09:11;;;;;;;;;;;-1.80;98.70;;;;;;5003289;28;20012;-78
2022/01/28 00:11:37;;;;;;;;;;;-1.90;98.50;;;;;;5019968;28;20088;-79
2022/01/28 00:39:12;;;;;;;;;;;-2.10;98.80;;;;;;4940397;29;20385;-78
2022/01/28 00:41:38;;;;;;;;;;;-2.10;98.90;;;;;;4940390;28;20192;-79
2022/01/28 00:44:04;;;;;;;;;;;-2.20;99.40;;;;;;4940474;29;20065;-79
2022/01/28 00:46:29;;;;;;;;;;;-2.20;99.70;;;;;;4924751;29;19989;-79
2022/01/28 00:48:56;;;;;;;;;;;-2.20;99.30;;;;;;4940774;29;20010;-79
2022/01/28 00:51:22;;;;;;;;;;;-2.20;99.50;;;;;;4952370;28;19946;-79
2022/01/28 00:53:48;;;;;;;;;;;-2.20;99.60;;;;;;4959586;28;19918;-79
2022/01/28 00:56:13;;;;;;;;;;;-2.10;99.40;;;;;;5017620;28;19921;-79
2022/01/28 00:58:39;;;;;;;;;;;-2.10;99.40;;;;;;5041297;28;19982;-78
2022/01/28 01:01:04;;;;;;;;;;;-2.00;99.10;;;;;;5041784;28;19909;-79
2022/01/28 01:03:30;;;;;;;;;;;0.00;99.90;;;;;;5041003;28;20209;-78
2022/01/28 01:05:56;;;;;;;;;;;-2.20;99.40;;;;;;5041674;28;19956;-79
2022/01/28 01:08:21;;;;;;;;;;;-2.20;99.40;;;;;;5041837;28;19908;-79
2022/01/28 01:10:49;;;;;;;;;;;-2.30;99.50;;;;;;5041853;28;20416;-79
2022/01/28 01:13:14;;;;;;;;;;;-2.30;99.80;;;;;;5045756;28;20033;-79
2022/01/28 01:15:44;;;;;;;;;;;-2.30;99.70;;;;;;5053767;28;20161;-78
2022/01/28 01:18:20;;;;;;;;;;;-2.30;99.60;;;;;;5054192;28;19921;-79
2022/01/28 01:23:13;;;;;;;;;;;-1.40;99.80;;;;;;5044033;28;19971;-79
2022/01/28 01:28:11;;;;;;;;;;;-1.60;99.70;;;;;;5041757;28;20402;-78
2022/01/28 01:30:41;;;;;;;;;;;-2.40;99.50;;;;;;5040844;28;19912;-79
2022/01/28 01:33:08;;;;;;;;;;;-2.50;99.60;;;;;;5040696;28;19928;-79
2022/01/28 01:35:33;;;;;;;;;;;-2.30;99.80;;;;;;5038917;28;20395;-78
2022/01/28 01:37:59;;;;;;;;;;;-2.50;99.80;;;;;;5040009;28;19917;-79
2022/01/28 01:40:31;;;;;;;;;;;-2.50;99.70;;;;;;5038464;28;20129;-79
2022/01/28 01:43:19;;;;;;;;;;;-2.60;99.60;;;;;;5038451;28;20010;-78
2022/01/28 01:53:44;;;;;;;;;;;-2.70;99.10;;;;;;5040218;28;20323;-78
2022/01/28 01:56:10;;;;;;;;;;;-2.70;98.40;;;;;;5038187;28;20159;-79
2022/01/28 01:58:36;;;;;;;;;;;-2.70;98.20;;;;;;5039697;28;19912;-79
2022/01/28 02:01:02;;;;;;;;;;;-2.80;97.50;;;;;;5040013;28;19917;-78
2022/01/28 02:03:28;;;;;;;;;;;-2.80;97.40;;;;;;5039725;28;19909;-78
2022/01/28 02:05:58;;;;;;;;;;;-2.90;97.40;;;;;;5039908;28;19948;-78
2022/01/28 02:08:27;;;;;;;;;;;-2.90;97.50;;;;;;5039032;28;19923;-78
2022/01/28 02:10:58;;;;;;;;;;;-2.90;97.40;;;;;;5039772;28;20363;-79
2022/01/28 02:13:27;;;;;;;;;;;-3.00;97.40;;;;;;5039469;28;20296;-78
2022/01/28 02:15:53;;;;;;;;;;;-2.90;97.40;;;;;;5056109;28;19981;-79
2022/01/28 02:18:20;;;;;;;;;;;-3.00;97.40;;;;;;5041415;28;19909;-78
2022/01/28 02:20:49;;;;;;;;;;;-2.40;97.40;;;;;;5041426;28;19909;-78
2022/01/28 02:23:15;;;;;;;;;;;-2.00;97.40;;;;;;5041335;28;19975;-78
2022/01/28 02:25:41;;;;;;;;;;;-3.00;97.40;;;;;;5041347;28;20116;-78
2022/01/28 02:28:10;;;;;;;;;;;-3.00;97.40;;;;;;5060157;28;19919;-78
2022/01/28 02:30:35;;;;;;;;;;;-3.10;97.40;;;;;;5041591;28;20011;-78
2022/01/28 02:33:10;;;;;;;;;;;-2.90;97.50;;;;;;5063693;28;19959;-79
2022/01/28 02:35:37;;;;;;;;;;;-3.00;97.30;;;;;;5048377;28;19954;-79
2022/01/28 02:38:03;;;;;;;;;;;-3.00;97.20;;;;;;5063011;28;19928;-78
2022/01/28 02:40:29;;;;;;;;;;;-3.00;97.40;;;;;;5059978;28;19908;-78
2022/01/28 02:43:00;;;;;;;;;;;-2.90;97.20;;;;;;5040911;28;19995;-79
2022/01/28 02:45:37;;;;;;;;;;;-3.00;97.20;;;;;;5058808;28;19912;-78
2022/01/28 02:48:08;;;;;;;;;;;-2.40;97.30;;;;;;5059093;28;19920;-79
2022/01/28 02:50:44;;;;;;;;;;;-3.00;97.00;;;;;;5041213;28;20159;-78
2022/01/28 02:53:20;;;;;;;;;;;-3.00;97.20;;;;;;5059124;28;20311;-79
2022/01/28 02:55:46;;;;;;;;;;;-3.00;97.00;;;;;;5058929;28;19917;-80
2022/01/28 02:58:18;;;;;;;;;;;-3.00;97.00;;;;;;5040955;28;19931;-78
2022/01/28 03:00:47;;;;;;;;;;;-3.00;97.10;;;;;;5040853;28;19908;-79
2022/01/28 03:03:13;;;;;;;;;;;-0.50;97.60;;;;;;5041150;28;19913;-78
2022/01/28 03:05:40;;;;;;;;;;;-3.10;97.00;;;;;;5058723;28;19909;-79
2022/01/28 03:08:05;;;;;;;;;;;-3.10;96.90;;;;;;5058663;28;19943;-78
2022/01/28 03:15:35;;;;;;;;;;;-3.10;96.90;;;;;;5058704;28;19921;-78
2022/01/28 03:20:58;;;;;;;;;;;-3.10;97.10;;;;;;5058707;28;20212;-78
2022/01/28 03:23:24;;;;;;;;;;;-1.30;97.60;;;;;;5058815;28;19952;-79
2022/01/28 03:25:50;;;;;;;;;;;-3.10;97.00;;;;;;5060037;28;20255;-78
2022/01/28 03:28:19;;;;;;;;;;;-3.10;96.90;;;;;;5044377;28;19913;-78
2022/01/28 03:30:45;;;;;;;;;;;-2.40;97.10;;;;;;5062504;28;20391;-78
2022/01/28 03:33:10;;;;;;;;;;;-3.10;96.90;;;;;;5062665;28;20484;-78
2022/01/28 03:35:36;;;;;;;;;;;-3.20;96.80;;;;;;5062105;28;20166;-78
2022/01/28 03:38:05;;;;;;;;;;;-2.40;96.80;;;;;;5044736;28;20192;-78
2022/01/28 03:40:33;;;;;;;;;;;-3.20;96.50;;;;;;5044149;28;19916;-78
2022/01/28 03:42:59;;;;;;;;;;;-3.20;96.50;;;;;;5062338;28;19979;-78
2022/01/28 03:45:24;;;;;;;;;;;-3.10;96.60;;;;;;5062584;28;20758;-78
2022/01/28 03:47:50;;;;;;;;;;;-3.20;96.50;;;;;;5044293;28;20489;-78
2022/01/28 03:50:16;;;;;;;;;;;-3.20;96.40;;;;;;5062185;28;20342;-78
2022/01/28 03:52:41;;;;;;;;;;;-2.30;96.70;;;;;;5062362;28;20213;-79
2022/01/28 03:55:07;;;;;;;;;;;-3.20;96.80;;;;;;5043901;28;20590;-78
2022/01/28 03:57:33;;;;;;;;;;;-3.20;96.70;;;;;;5045040;28;19954;-79
2022/01/28 03:59:58;;;;;;;;;;;-3.20;96.80;;;;;;5078004;28;19943;-78
2022/01/28 04:02:28;;;;;;;;;;;-3.20;96.70;;;;;;5077147;28;20375;-79
2022/01/28 04:12:50;;;;;;;;;;;-3.30;97.40;;;;;;5063650;28;19919;-78
2022/01/28 04:17:47;;;;;;;;;;;-1.90;97.50;;;;;;5062519;28;19974;-79
2022/01/28 04:20:13;;;;;;;;;;;-3.30;97.20;;;;;;5062151;28;20427;-79
2022/01/28 04:22:38;;;;;;;;;;;-2.60;97.40;;;;;;5044135;28;19915;-78
2022/01/28 04:25:04;;;;;;;;;;;-3.20;97.30;;;;;;5061945;28;19971;-78
2022/01/28 04:27:30;;;;;;;;;;;-3.30;97.10;;;;;;5062438;28;19913;-78
2022/01/28 04:29:56;;;;;;;;;;;-2.60;97.40;;;;;;5044034;28;20261;-78
2022/01/28 04:32:24;;;;;;;;;;;-3.40;97.80;;;;;;5043411;28;19908;-78
2022/01/28 04:34:49;;;;;;;;;;;-3.40;98.40;;;;;;5062539;28;19908;-79
2022/01/28 04:37:27;;;;;;;;;;;-3.50;98.70;;;;;;5061612;28;20460;-78
2022/01/28 04:40:06;;;;;;;;;;;-3.50;99.30;;;;;;5044066;28;19966;-79
2022/01/28 04:47:36;;;;;;;;;;;-3.60;98.10;;;;;;5065795;28;20383;-79
2022/01/28 04:50:23;;;;;;;;;;;-3.50;97.60;;;;;;5050525;28;19908;-79
2022/01/28 04:55:28;;;;;;;;;;;-3.50;97.00;;;;;;5062201;28;19916;-79
2022/01/28 05:00:43;;;;;;;;;;;-3.50;96.70;;;;;;5061341;28;19909;-79
2022/01/28 05:28:41;;;;;;;;;;;-3.00;97.40;;;;;;5060302;28;19920;-79
2022/01/28 05:31:06;;;;;;;;;;;-3.50;97.00;;;;;;5060280;28;19913;-79
2022/01/28 05:33:32;;;;;;;;;;;-3.50;96.80;;;;;;5060288;28;19915;-79
2022/01/28 05:35:57;;;;;;;;;;;-3.40;96.70;;;;;;5060462;28;19932;-78
2022/01/28 05:38:23;;;;;;;;;;;-3.50;96.50;;;;;;5060100;28;19916;-79
2022/01/28 05:40:48;;;;;;;;;;;-3.50;96.50;;;;;;5060255;28;20209;-79
2022/01/28 05:43:17;;;;;;;;;;;-2.20;97.10;;;;;;5042213;28;19913;-79
2022/01/28 05:45:43;;;;;;;;;;;-3.60;97.20;;;;;;5060373;28;19935;-79
2022/01/28 05:48:08;;;;;;;;;;;-3.60;97.40;;;;;;5060251;28;20374;-79
2022/01/28 05:50:35;;;;;;;;;;;-3.20;97.40;;;;;;5042204;28;20352;-78
2022/01/28 05:53:01;;;;;;;;;;;-3.50;97.40;;;;;;5059856;28;20405;-79
2022/01/28 05:55:27;;;;;;;;;;;-2.90;98.30;;;;;;5059753;28;19942;-78
2022/01/28 05:57:52;;;;;;;;;;;-3.50;98.70;;;;;;5059944;28;19951;-78
2022/01/28 06:00:18;;;;;;;;;;;-3.40;98.90;;;;;;5060097;28;20292;-78
2022/01/28 06:02:45;;;;;;;;;;;-3.50;99.10;;;;;;5060257;28;19909;-79
2022/01/28 06:05:10;;;;;;;;;;;-2.40;99.20;;;;;;5060273;28;20499;-78
2022/01/28 06:07:41;;;;;;;;;;;-3.40;99.10;;;;;;5060421;28;19908;-78
2022/01/28 06:10:10;;;;;;;;;;;-3.30;98.80;;;;;;5042329;28;19916;-79
2022/01/28 06:12:42;;;;;;;;;;;-3.30;98.90;;;;;;5060660;28;20374;-79
2022/01/28 06:15:09;;;;;;;;;;;-3.30;98.80;;;;;;5059653;28;19921;-79
2022/01/28 06:17:34;;;;;;;;;;;-3.20;98.60;;;;;;5059775;28;19970;-79
2022/01/28 06:20:03;;;;;;;;;;;-3.20;98.30;;;;;;5058988;28;20313;-79
2022/01/28 06:22:29;;;;;;;;;;;-3.20;98.50;;;;;;5059753;28;19909;-79
2022/01/28 06:24:54;;;;;;;;;;;-3.20;98.50;;;;;;5060148;28;20551;-78
2022/01/28 06:27:22;;;;;;;;;;;-3.20;98.30;;;;;;5042364;28;19923;-80
2022/01/28 06:29:47;;;;;;;;;;;-3.30;98.60;;;;;;5060116;28;19923;-79
2022/01/28 06:32:13;;;;;;;;;;;-2.40;98.90;;;;;;5059793;28;20333;-78
2022/01/28 06:34:39;;;;;;;;;;;-2.50;98.40;;;;;;5060826;28;19908;-78
2022/01/28 06:37:05;;;;;;;;;;;-3.30;97.50;;;;;;5061124;28;19921;-79
2022/01/28 06:39:32;;;;;;;;;;;-3.30;97.20;;;;;;5060235;28;19982;-79
2022/01/28 06:41:58;;;;;;;;;;;-3.30;96.40;;;;;;5061215;28;19916;-78
2022/01/28 06:44:25;;;;;;;;;;;-3.30;96.20;;;;;;5043870;28;20301;-78
2022/01/28 06:46:51;;;;;;;;;;;-3.40;96.20;;;;;;5043496;28;19909;-78
2022/01/28 06:49:18;;;;;;;;;;;-2.10;96.40;;;;;;5072599;28;19908;-79
2022/01/28 06:51:44;;;;;;;;;;;-3.40;96.00;;;;;;5072571;28;20019;-78
2022/01/28 06:54:09;;;;;;;;;;;-3.40;96.00;;;;;;5054125;28;20005;-78
2022/01/28 06:56:35;;;;;;;;;;;-3.30;96.10;;;;;;5073026;28;19974;-78
2022/01/28 06:59:00;;;;;;;;;;;-3.30;95.80;;;;;;5075583;28;20100;-78
2022/01/28 07:01:26;;;;;;;;;;;-3.40;95.60;;;;;;5073915;28;19919;-79
2022/01/28 07:03:51;;;;;;;;;;;-3.40;95.80;;;;;;5066911;28;19948;-78
2022/01/28 07:06:18;;;;;;;;;;;-1.40;96.60;;;;;;5066298;28;20390;-79
2022/01/28 07:08:44;;;;;;;;;;;-3.30;95.80;;;;;;5066160;28;19969;-79
2022/01/28 07:11:10;;;;;;;;;;;-3.30;95.90;;;;;;5082453;28;19908;-80
2022/01/28 07:13:35;;;;;;;;;;;-3.30;96.00;;;;;;5075704;28;20331;-78
2022/01/28 07:16:01;;;;;;;;;;;-3.20;96.20;;;;;;5065003;28;19920;-79
2022/01/28 07:18:27;;;;;;;;;;;-3.20;96.50;;;;;;5064393;28;19943;-77
2022/01/28 07:20:52;;;;;;;;;;;-3.20;97.30;;;;;;5064026;28;20126;-79
2022/01/28 07:23:19;;;;;;;;;;;-3.10;97.60;;;;;;5028871;28;20266;-79
2022/01/28 07:25:45;;;;;;;;;;;-3.10;97.90;;;;;;5063068;28;19908;-78
2022/01/28 07:28:12;;;;;;;;;;;-3.10;98.10;;;;;;5063484;28;19913;-79
2022/01/28 07:30:37;;;;;;;;;;;-3.00;98.00;;;;;;5063755;28;19923;-79
2022/01/28 07:33:06;;;;;;;;;;;-2.20;98.30;;;;;;5045227;28;19999;-79
2022/01/28 07:35:32;;;;;;;;;;;-2.90;98.00;;;;;;5063361;28;20109;-79
2022/01/28 07:37:58;;;;;;;;;;;-2.90;98.00;;;;;;5062829;28;19924;-79
2022/01/28 07:40:23;;;;;;;;;;;-2.30;98.10;;;;;;5044923;28;19912;-78
2022/01/28 07:42:49;;;;;;;;;;;-3.20;97.80;;;;;;5062927;28;20262;-78
2022/01/28 07:45:16;;;;;;;;;;;-2.70;97.80;;;;;;5062385;28;20007;-78
2022/01/28 07:47:42;;;;;;;;;;;-2.60;97.60;;;;;;5062647;28;19913;-79
2022/01/28 07:50:08;;;;;;;;;;;-2.40;97.50;;;;;;5062021;28;19909;-79
2022/01/28 07:52:34;;;;;;;;;;;-2.60;97.30;;;;;;5043722;28;20299;-78
2022/01/28 07:55:00;;;;;;;;;;;-2.20;97.00;;;;;;5062578;28;19916;-78
2022/01/28 07:57:26;;;;;;;;;;;-2.10;96.90;;;;;;5061691;28;19939;-79
2022/01/28 07:59:51;;;;;;;;;;;-1.90;96.50;;;;;;5061769;28;19998;-79
2022/01/28 08:02:17;;;;;;;;;;;-1.90;96.50;;;;;;5061875;28;19961;-79
2022/01/28 08:04:42;;;;;;;;;;;0.50;97.00;;;;;;5061729;28;19920;-79
2022/01/28 08:07:09;;;;;;;;;;;-1.60;96.30;;;;;;5044127;28;20005;-79
2022/01/28 08:09:35;;;;;;;;;;;-1.60;96.00;;;;;;5043790;28;20371;-79
2022/01/28 08:12:00;;;;;;;;;;;-0.30;96.20;;;;;;5060465;28;20207;-78
2022/01/28 08:14:28;;;;;;;;;;;-0.20;96.10;;;;;;5061646;28;20120;-78
2022/01/28 08:16:53;;;;;;;;;;;-1.30;95.40;;;;;;5043154;28;20019;-79
2022/01/28 08:19:19;;;;;;;;;;;-2.90;95.10;;;;;;5061584;28;19991;-79
2022/01/28 08:21:44;;;;;;;;;;;-1.00;95.20;;;;;;5043556;28;20201;-79
2022/01/28 08:24:10;;;;;;;;;;;-0.80;94.40;;;;;;5061556;28;19946;-78
2022/01/28 08:26:36;;;;;;;;;;;-0.70;94.40;;;;;;5061459;28;20121;-79
2022/01/28 08:29:01;;;;;;;;;;;-0.60;93.80;;;;;;5061667;28;19909;-79
2022/01/28 08:31:27;;;;;;;;;;;-0.40;93.40;;;;;;5061534;28;19908;-79
2022/01/28 08:33:54;;;;;;;;;;;-0.60;93.10;;;;;;5062072;28;20476;-79
2022/01/28 08:36:20;;;;;;;;;;;-0.50;93.10;;;;;;5043057;28;20040;-79
2022/01/28 08:38:49;;;;;;;;;;;-0.50;93.20;;;;;;5061504;28;19908;-78
2022/01/28 08:41:15;;;;;;;;;;;-0.40;93.00;;;;;;5061091;28;20168;-79
2022/01/28 08:43:41;;;;;;;;;;;-0.30;92.60;;;;;;5061381;28;20155;-79
2022/01/28 08:46:06;;;;;;;;;;;-0.30;92.70;;;;;;5043192;28;20226;-79
2022/01/28 08:48:32;;;;;;;;;;;-0.40;92.50;;;;;;5061169;28;19908;-79
2022/01/28 08:50:58;;;;;;;;;;;0.20;92.40;;;;;;5061234;28;20538;-78
2022/01/28 08:53:24;;;;;;;;;;;0.00;92.20;;;;;;5061292;28;20395;-79
2022/01/28 08:55:49;;;;;;;;;;;0.10;92.00;;;;;;5061152;28;19923;-78
2022/01/28 08:58:15;;;;;;;;;;;0.50;91.00;;;;;;5061425;28;19970;-78
2022/01/28 09:00:45;;;;;;;;;;;0.70;90.60;;;;;;5060510;28;19912;-79
2022/01/28 09:03:12;;;;;;;;;;;0.80;89.50;;;;;;5061087;28;20409;-79
2022/01/28 09:05:37;;;;;;;;;;;0.80;89.50;;;;;;5061313;28;19954;-78
2022/01/28 09:08:09;;;;;;;;;;;0.80;89.00;;;;;;5042730;28;19921;-79
2022/01/28 09:10:37;;;;;;;;;;;1.00;89.10;;;;;;5061173;28;20554;-79
2022/01/28 09:15:33;;;;;;;;;;;3.20;88.10;;;;;;5060036;28;19924;-79
2022/01/28 09:17:58;;;;;;;;;;;1.90;87.40;;;;;;5061020;28;19977;-79
2022/01/28 09:20:24;;;;;;;;;;;2.30;86.20;;;;;;5060946;28;20352;-79
2022/01/28 09:22:50;;;;;;;;;;;2.50;84.30;;;;;;5061936;28;20113;-79
2022/01/28 09:25:15;;;;;;;;;;;2.80;82.90;;;;;;5067768;28;20390;-79
2022/01/28 09:27:41;;;;;;;;;;;3.10;79.70;;;;;;5065278;28;19908;-78
2022/01/28 09:30:07;;;;;;;;;;;3.30;79.40;;;;;;5062890;28;19966;-79
2022/01/28 09:32:33;;;;;;;;;;;3.60;78.00;;;;;;5045530;28;19912;-79
2022/01/28 09:34:58;;;;;;;;;;;3.40;79.10;;;;;;5064026;28;19944;-79
2022/01/28 09:37:24;;;;;;;;;;;3.40;79.20;;;;;;5067969;28;20281;-79
2022/01/28 09:39:50;;;;;;;;;;;3.30;79.20;;;;;;5069062;28;19919;-80
2022/01/28 09:42:16;;;;;;;;;;;3.20;80.10;;;;;;5069153;28;20185;-79
2022/01/28 09:44:43;;;;;;;;;;;3.00;80.60;;;;;;5065510;28;19935;-79
2022/01/28 09:47:12;;;;;;;;;;;2.90;81.90;;;;;;5061235;28;19908;-79
2022/01/28 09:49:39;;;;;;;;;;;2.90;82.10;;;;;;5060406;28;20088;-79
2022/01/28 09:52:05;;;;;;;;;;;2.80;82.20;;;;;;5060592;28;19915;-79
2022/01/28 09:54:31;;;;;;;;;;;2.70;81.90;;;;;;5041675;28;20307;-79
2022/01/28 09:56:58;;;;;;;;;;;2.70;82.50;;;;;;5059438;28;19927;-79
2022/01/28 09:59:23;;;;;;;;;;;2.60;83.20;;;;;;5059510;28;19941;-79
2022/01/28 10:01:52;;;;;;;;;;;2.70;83.10;;;;;;5059162;28;19909;-79
2022/01/28 10:04:18;;;;;;;;;;;2.70;83.30;;;;;;5041485;28;19908;-79
2022/01/28 10:06:44;;;;;;;;;;;2.80;83.70;;;;;;5041271;28;19943;-78
2022/01/28 10:09:11;;;;;;;;;;;2.90;83.60;;;;;;5059059;28;19975;-79
2022/01/28 10:11:38;;;;;;;;;;;3.00;82.80;;;;;;5059521;28;20040;-79
2022/01/28 10:14:16;;;;;;;;;;;3.20;82.10;;;;;;5059716;28;20197;-79
2022/01/28 10:16:42;;;;;;;;;;;3.30;81.90;;;;;;5059170;28;19943;-79
2022/01/28 10:19:09;;;;;;;;;;;3.40;80.90;;;;;;5041627;28;20419;-79
2022/01/28 10:21:36;;;;;;;;;;;3.50;80.30;;;;;;5059710;28;20418;-79
2022/01/28 10:24:04;;;;;;;;;;;3.60;79.10;;;;;;5059315;28;19962;-79
2022/01/28 10:26:44;;;;;;;;;;;3.60;79.70;;;;;;5058667;28;19919;-80
2022/01/28 10:29:12;;;;;;;;;;;3.60;78.70;;;;;;5059282;28;19919;-79
2022/01/28 10:31:39;;;;;;;;;;;3.60;79.10;;;;;;5041225;28;19954;-79
2022/01/28 10:34:18;;;;;;;;;;;3.50;79.30;;;;;;5059589;28;19912;-79
2022/01/28 10:36:44;;;;;;;;;;;3.40;78.40;;;;;;5058841;28;19966;-78
2022/01/28 10:39:13;;;;;;;;;;;3.40;79.50;;;;;;5059793;28;19912;-79
2022/01/28 10:41:47;;;;;;;;;;;3.30;79.60;;;;;;5059259;28;19919;-79
2022/01/28 10:44:14;;;;;;;;;;;3.10;80.70;;;;;;5060242;28;20406;-79
2022/01/28 10:46:39;;;;;;;;;;;3.00;81.70;;;;;;5059382;28;19908;-79
2022/01/28 10:49:08;;;;;;;;;;;2.90;81.80;;;;;;5059173;28;19916;-79
2022/01/28 10:51:41;;;;;;;;;;;2.70;82.40;;;;;;5059063;28;19951;-79
2022/01/28 10:54:09;;;;;;;;;;;2.60;82.70;;;;;;5059032;28;20140;-79
2022/01/28 10:56:48;;;;;;;;;;;2.50;84.30;;;;;;5040809;28;20286;-79
2022/01/28 10:59:14;;;;;;;;;;;2.40;84.00;;;;;;5059001;28;20184;-79
2022/01/28 11:01:41;;;;;;;;;;;2.30;85.50;;;;;;5059224;28;19908;-79
2022/01/28 11:04:09;;;;;;;;;;;2.30;87.00;;;;;;5040490;28;20319;-79
2022/01/28 11:06:35;;;;;;;;;;;2.10;88.50;;;;;;5059615;28;19916;-79
2022/01/28 11:09:01;;;;;;;;;;;2.10;89.00;;;;;;5041260;28;19909;-79
2022/01/28 11:11:26;;;;;;;;;;;2.00;90.00;;;;;;5059138;28;20590;-79
2022/01/28 11:13:52;;;;;;;;;;;2.00;90.20;;;;;;5041156;28;20156;-79
2022/01/28 11:16:18;;;;;;;;;;;2.00;90.60;;;;;;5059103;28;19951;-79
2022/01/28 11:18:44;;;;;;;;;;;2.10;91.10;;;;;;5059660;28;19943;-79
2022/01/28 11:21:14;;;;;;;;;;;2.10;90.80;;;;;;5059504;28;19909;-79
2022/01/28 11:23:49;;;;;;;;;;;2.20;90.80;;;;;;5059928;28;20425;-79
2022/01/28 11:26:17;;;;;;;;;;;2.20;90.90;;;;;;5060223;28;19919;-79
2022/01/28 11:28:44;;;;;;;;;;;2.30;90.80;;;;;;5042730;28;20187;-79
2022/01/28 11:31:10;;;;;;;;;;;2.30;90.30;;;;;;5041599;28;20337;-79
2022/01/28 11:33:48;;;;;;;;;;;2.40;90.40;;;;;;5059782;28;19959;-79
2022/01/28 11:36:14;;;;;;;;;;;2.40;90.00;;;;;;5059597;28;19912;-79
2022/01/28 11:38:41;;;;;;;;;;;2.40;90.50;;;;;;5060354;28;19959;-78
2022/01/28 11:41:08;;;;;;;;;;;2.30;90.90;;;;;;5046952;28;19909;-79
2022/01/28 11:43:34;;;;;;;;;;;2.20;91.40;;;;;;5044777;28;19916;-79
2022/01/28 11:46:06;;;;;;;;;;;2.10;91.80;;;;;;5059526;28;19916;-79
2022/01/28 11:48:50;;;;;;;;;;;1.90;92.40;;;;;;5062982;28;20558;-79
2022/01/28 11:51:16;;;;;;;;;;;1.90;92.80;;;;;;5062270;28;19909;-78
2022/01/28 11:53:55;;;;;;;;;;;1.70;93.40;;;;;;5044016;28;20405;-78
2022/01/28 11:56:24;;;;;;;;;;;1.60;93.80;;;;;;5061626;28;20000;-79
2022/01/28 11:58:58;;;;;;;;;;;1.50;94.40;;;;;;5061956;28;20204;-78
2022/01/28 12:01:25;;;;;;;;;;;1.40;94.80;;;;;;5061972;28;19908;-78
2022/01/28 12:03:50;;;;;;;;;;;1.30;95.20;;;;;;5062255;28;20285;-78
2022/01/28 12:06:19;;;;;;;;;;;1.20;95.90;;;;;;5043976;28;19918;-79
2022/01/28 12:08:46;;;;;;;;;;;1.20;96.20;;;;;;5061979;28;19908;-79
2022/01/28 12:11:13;;;;;;;;;;;1.00;96.60;;;;;;5043885;28;19908;-79
2022/01/28 12:14:03;;;;;;;;;;;1.10;97.00;;;;;;5062260;28;20159;-79
2022/01/28 12:16:40;;;;;;;;;;;0.90;97.20;;;;;;5021580;28;19921;-79
2022/01/28 12:19:14;;;;;;;;;;;0.80;97.50;;;;;;5022667;28;19928;-79
2022/01/28 12:21:40;;;;;;;;;;;0.90;97.80;;;;;;5022464;28;19909;-79
2022/01/28 12:24:20;;;;;;;;;;;0.80;97.90;;;;;;5024739;28;19994;-79
2022/01/28 12:27:00;;;;;;;;;;;0.80;98.10;;;;;;5027315;28;19909;-79
2022/01/28 12:29:29;;;;;;;;;;;2.60;98.90;;;;;;5029552;28;19909;-79
2022/01/28 12:31:56;;;;;;;;;;;0.70;99.00;;;;;;5029236;28;19912;-79
2022/01/28 12:34:22;;;;;;;;;;;0.70;99.30;;;;;;5021444;28;19946;-80
2022/01/28 12:36:48;;;;;;;;;;;1.10;99.60;;;;;;5021852;28;19921;-79
2022/01/28 12:39:31;;;;;;;;;;;0.70;99.50;;;;;;5020606;28;20228;-79
2022/01/28 12:42:06;;;;;;;;;;;2.60;99.90;;;;;;5021053;28;19944;-79
2022/01/28 12:44:32;;;;;;;;;;;0.80;99.30;;;;;;5021321;28;19924;-80
2022/01/28 12:46:59;;;;;;;;;;;1.10;99.40;;;;;;5021377;28;19940;-80
2022/01/28 12:49:32;;;;;;;;;;;1.20;98.80;;;;;;5021505;28;19909;-80
2022/01/28 12:52:05;;;;;;;;;;;1.30;98.60;;;;;;5021436;28;20390;-80
2022/01/28 12:54:32;;;;;;;;;;;1.30;98.60;;;;;;5020588;28;19920;-80
2022/01/28 12:56:57;;;;;;;;;;;1.20;98.30;;;;;;5021986;28;19921;-80
2022/01/28 12:59:23;;;;;;;;;;;1.20;98.50;;;;;;5021194;28;19920;-79
2022/01/28 13:01:52;;;;;;;;;;;1.20;98.30;;;;;;5019931;28;20248;-79
2022/01/28 13:04:21;;;;;;;;;;;1.30;98.40;;;;;;5020905;28;19909;-80
2022/01/28 13:09:19;;;;;;;;;;;1.40;98.30;;;;;;5021311;28;19956;-80
2022/01/28 13:11:45;;;;;;;;;;;1.50;98.20;;;;;;5021860;28;19915;-80
2022/01/28 13:14:21;;;;;;;;;;;1.60;98.10;;;;;;5027305;28;20328;-80
2022/01/28 13:16:48;;;;;;;;;;;1.70;97.70;;;;;;5060876;28;19920;-80
2022/01/28 13:19:14;;;;;;;;;;;2.60;97.60;;;;;;5043359;28;20410;-80
2022/01/28 13:21:43;;;;;;;;;;;1.90;97.40;;;;;;5062184;28;20211;-80
2022/01/28 13:24:17;;;;;;;;;;;1.90;97.60;;;;;;5061095;28;19915;-80
2022/01/28 13:26:54;;;;;;;;;;;2.00;97.30;;;;;;5060581;28;19912;-80
2022/01/28 13:29:39;;;;;;;;;;;2.10;97.10;;;;;;5059932;28;20211;-81
2022/01/28 13:32:05;;;;;;;;;;;2.20;96.90;;;;;;5060016;28;19909;-80
2022/01/28 13:34:47;;;;;;;;;;;2.50;96.40;;;;;;5042998;28;19994;-79
2022/01/28 13:37:29;;;;;;;;;;;2.60;96.20;;;;;;5061322;28;20377;-79
2022/01/28 13:39:55;;;;;;;;;;;2.80;95.90;;;;;;5062651;28;19919;-80
2022/01/28 13:42:23;;;;;;;;;;;2.90;95.50;;;;;;5045231;28;20208;-81
2022/01/28 13:44:49;;;;;;;;;;;3.10;95.40;;;;;;5064346;28;19923;-79
2022/01/28 13:47:17;;;;;;;;;;;3.20;95.10;;;;;;5048202;28;19916;-80
2022/01/28 13:49:43;;;;;;;;;;;3.20;94.90;;;;;;5047467;28;19909;-81
2022/01/28 13:52:23;;;;;;;;;;;3.30;94.40;;;;;;5070203;28;19962;-80
2022/01/28 13:54:49;;;;;;;;;;;3.40;94.50;;;;;;5071233;28;19909;-80
2022/01/28 13:57:15;;;;;;;;;;;3.60;94.40;;;;;;5067656;28;19916;-79
2022/01/28 13:59:42;;;;;;;;;;;3.80;94.30;;;;;;5065285;28;19962;-80
2022/01/28 14:02:15;;;;;;;;;;;4.00;93.70;;;;;;5046158;28;19908;-81
2022/01/28 14:04:42;;;;;;;;;;;4.20;93.20;;;;;;5063827;28;20212;-79
2022/01/28 14:07:18;;;;;;;;;;;4.30;92.60;;;;;;5062800;28;19912;-80
2022/01/28 14:09:56;;;;;;;;;;;4.50;92.60;;;;;;5062204;28;20011;-79
2022/01/28 14:12:26;;;;;;;;;;;4.60;92.30;;;;;;5062610;28;19912;-80
2022/01/28 14:14:58;;;;;;;;;;;4.80;91.90;;;;;;5043772;28;19924;-80
2022/01/28 14:17:23;;;;;;;;;;;4.90;91.80;;;;;;5061885;28;20000;-80
2022/01/28 14:19:51;;;;;;;;;;;4.90;91.50;;;;;;5061600;28;19908;-80
2022/01/28 14:22:17;;;;;;;;;;;4.90;91.60;;;;;;5061915;28;19998;-80
2022/01/28 14:24:44;;;;;;;;;;;6.60;91.80;;;;;;5061848;28;20007;-80
2022/01/28 14:27:34;;;;;;;;;;;4.90;91.60;;;;;;5062186;28;19915;-80
2022/01/28 14:30:04;;;;;;;;;;;4.90;91.70;;;;;;5061943;28;19951;-80
2022/01/28 14:32:30;;;;;;;;;;;4.80;91.70;;;;;;5061508;28;20330;-80
2022/01/28 14:34:56;;;;;;;;;;;4.60;92.00;;;;;;5061205;28;20415;-80
2022/01/28 14:37:24;;;;;;;;;;;4.50;92.40;;;;;;5043835;28;20123;-80
2022/01/28 14:39:49;;;;;;;;;;;4.40;92.50;;;;;;5043371;28;20386;-79
2022/01/28 14:42:15;;;;;;;;;;;4.30;92.70;;;;;;5061472;28;20124;-79
2022/01/28 14:44:43;;;;;;;;;;;4.30;92.60;;;;;;5043044;28;19916;-79
2022/01/28 14:47:09;;;;;;;;;;;4.10;93.10;;;;;;5062813;28;20007;-80
2022/01/28 14:49:35;;;;;;;;;;;5.20;93.80;;;;;;5044601;28;20078;-80
2022/01/28 14:52:05;;;;;;;;;;;3.90;93.80;;;;;;5062629;28;19932;-79
2022/01/28 14:54:31;;;;;;;;;;;3.70;94.10;;;;;;5062739;28;20227;-79
2022/01/28 14:56:57;;;;;;;;;;;3.50;94.50;;;;;;5045286;28;19960;-79
2022/01/28 14:59:23;;;;;;;;;;;3.40;94.90;;;;;;5064367;28;19908;-80
2022/01/28 15:01:49;;;;;;;;;;;3.40;95.10;;;;;;5073784;28;20364;-79
2022/01/28 15:04:15;;;;;;;;;;;3.30;95.30;;;;;;5073645;28;20144;-80
2022/01/28 15:06:41;;;;;;;;;;;3.20;95.60;;;;;;5072848;28;19919;-80
2022/01/28 15:09:08;;;;;;;;;;;3.20;95.70;;;;;;5078267;28;20200;-79
2022/01/28 15:11:43;;;;;;;;;;;5.10;96.10;;;;;;5056968;28;19916;-80
2022/01/28 15:14:12;;;;;;;;;;;3.00;95.80;;;;;;5076656;28;20596;-80
2022/01/28 15:16:38;;;;;;;;;;;3.00;95.90;;;;;;5063034;28;20042;-80
2022/01/28 15:19:04;;;;;;;;;;;2.90;96.20;;;;;;5042931;28;20622;-79
2022/01/28 15:21:30;;;;;;;;;;;2.90;96.50;;;;;;5042962;28;19912;-80
2022/01/28 15:23:55;;;;;;;;;;;2.80;96.70;;;;;;5063961;28;20524;-79
2022/01/28 15:26:21;;;;;;;;;;;2.70;96.80;;;;;;5064118;28;20248;-80
2022/01/28 15:29:10;;;;;;;;;;;2.60;97.20;;;;;;5046099;28;19959;-79
2022/01/28 15:34:46;;;;;;;;;;;2.60;97.40;;;;;;5063344;28;20420;-79
2022/01/28 15:37:12;;;;;;;;;;;2.50;97.50;;;;;;5063119;28;20032;-79
2022/01/28 15:39:37;;;;;;;;;;;2.50;97.70;;;;;;5062897;28;20196;-80
2022/01/28 15:42:04;;;;;;;;;;;2.40;97.80;;;;;;5063075;28;20099;-79
2022/01/28 15:44:30;;;;;;;;;;;2.40;97.90;;;;;;5063241;28;20523;-80
2022/01/28 15:46:55;;;;;;;;;;;2.30;98.10;;;;;;5062761;28;20018;-78
2022/01/28 15:49:22;;;;;;;;;;;2.30;98.30;;;;;;5044624;28;20003;-80
2022/01/28 15:51:48;;;;;;;;;;;2.40;98.20;;;;;;5045181;28;19908;-80
2022/01/28 15:54:14;;;;;;;;;;;2.20;98.30;;;;;;5044762;28;19909;-79
2022/01/28 15:56:39;;;;;;;;;;;2.10;98.40;;;;;;5062585;28;19919;-80
2022/01/28 15:59:05;;;;;;;;;;;2.00;98.60;;;;;;5062598;28;20562;-79
2022/01/28 16:01:31;;;;;;;;;;;2.00;98.80;;;;;;5062884;28;20250;-79
2022/01/28 16:03:56;;;;;;;;;;;1.90;99.10;;;;;;5062568;28;20003;-80
2022/01/28 16:06:22;;;;;;;;;;;1.80;99.20;;;;;;5065764;28;19960;-80
2022/01/28 16:08:48;;;;;;;;;;;1.80;99.40;;;;;;5050480;28;20408;-80